sensor_id;sensor_type;location;lat;lon;timestamp;P1;durP1;ratioP1;P2;durP2;ratioP2
9522;SDS011;63165;43.016;25.784;2023-03-03T00:00:50;109.20;;;33.75;;
9522;SDS011;63165;43.016;25.784;2023-03-03T00:03:18;117.00;;;34.63;;
9522;SDS011;63165;43.016;25.784;2023-03-03T00:05:48;114.88;;;36.03;;
9522;SDS011;63165;43.016;25.784;2023-03-03T00:08:16;111.05;;;35.17;;
9522;SDS011;63165;43.016;25.784;2023-03-03T00:10:44;110.07;;;32.35;;
9522;SDS011;63165;43.016;25.784;2023-03-03T00:13:12;105.03;;;33.53;;
9522;SDS011;63165;43.016;25.784;2023-03-03T00:15:42;99.70;;;31.35;;
9522;SDS011;63165;43.016;25.784;2023-03-03T00:20:56;89.95;;;29.30;;
9522;SDS011;63165;43.016;25.784;2023-03-03T00:23:29;87.07;;;26.40;;
9522;SDS011;63165;43.016;25.784;2023-03-03T00:26:01;78.53;;;24.92;;
9522;SDS011;63165;43.016;25.784;2023-03-03T00:28:42;81.55;;;26.25;;
9522;SDS011;63165;43.016;25.784;2023-03-03T00:31:13;85.07;;;26.17;;
9522;SDS011;63165;43.016;25.784;2023-03-03T00:33:45;82.70;;;25.88;;
9522;SDS011;63165;43.016;25.784;2023-03-03T00:36:29;76.07;;;23.92;;
9522;SDS011;63165;43.016;25.784;2023-03-03T00:39:10;91.43;;;26.75;;
9522;SDS011;63165;43.016;25.784;2023-03-03T00:41:44;87.43;;;26.63;;
9522;SDS011;63165;43.016;25.784;2023-03-03T00:44:30;78.50;;;25.40;;
9522;SDS011;63165;43.016;25.784;2023-03-03T00:47:13;79.93;;;24.92;;
9522;SDS011;63165;43.016;25.784;2023-03-03T00:49:52;90.97;;;25.98;;
9522;SDS011;63165;43.016;25.784;2023-03-03T00:52:21;88.40;;;26.80;;
9522;SDS011;63165;43.016;25.784;2023-03-03T00:54:53;72.90;;;24.33;;
9522;SDS011;63165;43.016;25.784;2023-03-03T00:57:21;87.50;;;26.95;;
9522;SDS011;63165;43.016;25.784;2023-03-03T00:59:48;84.82;;;26.85;;
9522;SDS011;63165;43.016;25.784;2023-03-03T01:02:15;80.57;;;26.60;;
9522;SDS011;63165;43.016;25.784;2023-03-03T01:04:43;75.28;;;24.70;;
9522;SDS011;63165;43.016;25.784;2023-03-03T01:07:17;83.82;;;24.70;;
9522;SDS011;63165;43.016;25.784;2023-03-03T01:09:45;68.07;;;22.75;;
9522;SDS011;63165;43.016;25.784;2023-03-03T01:12:13;69.07;;;22.45;;
9522;SDS011;63165;43.016;25.784;2023-03-03T01:14:41;77.50;;;23.95;;
9522;SDS011;63165;43.016;25.784;2023-03-03T01:17:10;71.88;;;23.08;;
9522;SDS011;63165;43.016;25.784;2023-03-03T01:19:37;78.28;;;25.38;;
9522;SDS011;63165;43.016;25.784;2023-03-03T01:22:05;76.78;;;22.85;;
9522;SDS011;63165;43.016;25.784;2023-03-03T01:24:34;76.20;;;24.20;;
9522;SDS011;63165;43.016;25.784;2023-03-03T01:27:01;72.75;;;23.98;;
9522;SDS011;63165;43.016;25.784;2023-03-03T01:29:29;72.65;;;23.90;;
9522;SDS011;63165;43.016;25.784;2023-03-03T01:31:56;74.30;;;23.60;;
9522;SDS011;63165;43.016;25.784;2023-03-03T01:34:24;83.00;;;27.23;;
9522;SDS011;63165;43.016;25.784;2023-03-03T01:36:51;98.13;;;32.13;;
9522;SDS011;63165;43.016;25.784;2023-03-03T01:39:19;101.05;;;30.65;;
9522;SDS011;63165;43.016;25.784;2023-03-03T01:41:48;97.78;;;32.38;;
9522;SDS011;63165;43.016;25.784;2023-03-03T01:44:15;103.47;;;31.70;;
9522;SDS011;63165;43.016;25.784;2023-03-03T01:46:45;91.47;;;29.50;;
9522;SDS011;63165;43.016;25.784;2023-03-03T01:49:18;94.75;;;29.70;;
9522;SDS011;63165;43.016;25.784;2023-03-03T01:51:50;97.43;;;30.83;;
9522;SDS011;63165;43.016;25.784;2023-03-03T01:54:21;113.55;;;33.60;;
9522;SDS011;63165;43.016;25.784;2023-03-03T01:56:54;102.22;;;32.28;;
9522;SDS011;63165;43.016;25.784;2023-03-03T01:59:27;104.22;;;33.88;;
9522;SDS011;63165;43.016;25.784;2023-03-03T02:01:57;106.80;;;32.65;;
9522;SDS011;63165;43.016;25.784;2023-03-03T02:04:25;128.93;;;37.90;;
9522;SDS011;63165;43.016;25.784;2023-03-03T02:06:53;115.82;;;35.42;;
9522;SDS011;63165;43.016;25.784;2023-03-03T02:09:26;97.15;;;32.55;;
9522;SDS011;63165;43.016;25.784;2023-03-03T02:12:02;103.10;;;33.03;;
9522;SDS011;63165;43.016;25.784;2023-03-03T02:14:34;119.03;;;35.17;;
9522;SDS011;63165;43.016;25.784;2023-03-03T02:17:01;114.32;;;35.13;;
9522;SDS011;63165;43.016;25.784;2023-03-03T02:19:31;116.32;;;33.58;;
9522;SDS011;63165;43.016;25.784;2023-03-03T02:22:05;118.18;;;35.17;;
9522;SDS011;63165;43.016;25.784;2023-03-03T02:24:34;110.93;;;33.70;;
9522;SDS011;63165;43.016;25.784;2023-03-03T02:27:10;130.98;;;37.88;;
9522;SDS011;63165;43.016;25.784;2023-03-03T02:29:38;122.20;;;38.03;;
9522;SDS011;63165;43.016;25.784;2023-03-03T02:32:06;128.55;;;38.40;;
9522;SDS011;63165;43.016;25.784;2023-03-03T02:34:43;113.50;;;35.72;;
9522;SDS011;63165;43.016;25.784;2023-03-03T02:37:12;108.95;;;34.22;;
9522;SDS011;63165;43.016;25.784;2023-03-03T02:39:40;118.25;;;35.75;;
9522;SDS011;63165;43.016;25.784;2023-03-03T02:42:11;108.00;;;33.60;;
9522;SDS011;63165;43.016;25.784;2023-03-03T02:44:40;120.55;;;35.83;;
9522;SDS011;63165;43.016;25.784;2023-03-03T02:47:08;132.00;;;37.72;;
9522;SDS011;63165;43.016;25.784;2023-03-03T02:49:36;117.53;;;35.58;;
9522;SDS011;63165;43.016;25.784;2023-03-03T02:52:04;116.65;;;35.22;;
9522;SDS011;63165;43.016;25.784;2023-03-03T02:54:34;139.32;;;40.92;;
9522;SDS011;63165;43.016;25.784;2023-03-03T02:57:03;125.25;;;38.58;;
9522;SDS011;63165;43.016;25.784;2023-03-03T02:59:34;124.97;;;37.03;;
9522;SDS011;63165;43.016;25.784;2023-03-03T03:02:02;121.30;;;34.95;;
9522;SDS011;63165;43.016;25.784;2023-03-03T03:04:29;115.90;;;35.80;;
9522;SDS011;63165;43.016;25.784;2023-03-03T03:06:57;123.15;;;37.67;;
9522;SDS011;63165;43.016;25.784;2023-03-03T03:09:24;117.78;;;35.88;;
9522;SDS011;63165;43.016;25.784;2023-03-03T03:11:52;120.13;;;36.70;;
9522;SDS011;63165;43.016;25.784;2023-03-03T03:14:20;111.55;;;35.83;;
9522;SDS011;63165;43.016;25.784;2023-03-03T03:16:50;115.00;;;36.13;;
9522;SDS011;63165;43.016;25.784;2023-03-03T03:19:18;119.28;;;34.97;;
9522;SDS011;63165;43.016;25.784;2023-03-03T03:21:45;104.82;;;33.85;;
9522;SDS011;63165;43.016;25.784;2023-03-03T03:24:13;108.22;;;34.67;;
9522;SDS011;63165;43.016;25.784;2023-03-03T03:26:40;123.43;;;39.60;;
9522;SDS011;63165;43.016;25.784;2023-03-03T03:29:07;120.60;;;39.97;;
9522;SDS011;63165;43.016;25.784;2023-03-03T03:31:35;134.35;;;42.97;;
9522;SDS011;63165;43.016;25.784;2023-03-03T03:34:04;124.93;;;40.88;;
9522;SDS011;63165;43.016;25.784;2023-03-03T03:36:32;127.53;;;40.75;;
9522;SDS011;63165;43.016;25.784;2023-03-03T03:38:59;122.18;;;38.80;;
9522;SDS011;63165;43.016;25.784;2023-03-03T03:41:27;132.43;;;40.58;;
9522;SDS011;63165;43.016;25.784;2023-03-03T03:43:54;110.68;;;34.40;;
9522;SDS011;63165;43.016;25.784;2023-03-03T03:46:21;108.65;;;35.03;;
9522;SDS011;63165;43.016;25.784;2023-03-03T03:48:49;119.18;;;34.20;;
9522;SDS011;63165;43.016;25.784;2023-03-03T03:51:18;127.13;;;35.70;;
9522;SDS011;63165;43.016;25.784;2023-03-03T03:53:46;121.30;;;35.95;;
9522;SDS011;63165;43.016;25.784;2023-03-03T03:56:13;114.85;;;34.13;;
9522;SDS011;63165;43.016;25.784;2023-03-03T03:58:41;124.20;;;36.50;;
9522;SDS011;63165;43.016;25.784;2023-03-03T04:01:09;115.55;;;35.45;;
9522;SDS011;63165;43.016;25.784;2023-03-03T04:03:36;117.70;;;35.45;;
9522;SDS011;63165;43.016;25.784;2023-03-03T04:06:04;111.55;;;34.70;;
9522;SDS011;63165;43.016;25.784;2023-03-03T04:08:33;119.85;;;36.80;;
9522;SDS011;63165;43.016;25.784;2023-03-03T04:11:01;109.78;;;34.95;;
9522;SDS011;63165;43.016;25.784;2023-03-03T04:13:28;111.93;;;33.70;;
9522;SDS011;63165;43.016;25.784;2023-03-03T04:15:59;110.45;;;34.22;;
9522;SDS011;63165;43.016;25.784;2023-03-03T04:18:26;117.18;;;33.83;;
9522;SDS011;63165;43.016;25.784;2023-03-03T04:20:54;116.40;;;35.00;;
9522;SDS011;63165;43.016;25.784;2023-03-03T04:23:22;115.15;;;34.38;;
9522;SDS011;63165;43.016;25.784;2023-03-03T04:25:51;105.28;;;33.00;;
9522;SDS011;63165;43.016;25.784;2023-03-03T04:28:18;111.40;;;32.72;;
9522;SDS011;63165;43.016;25.784;2023-03-03T04:30:46;108.88;;;33.78;;
9522;SDS011;63165;43.016;25.784;2023-03-03T04:33:13;105.60;;;32.88;;
9522;SDS011;63165;43.016;25.784;2023-03-03T04:35:42;106.97;;;32.72;;
9522;SDS011;63165;43.016;25.784;2023-03-03T04:38:09;104.07;;;33.75;;
9522;SDS011;63165;43.016;25.784;2023-03-03T04:40:38;108.20;;;32.42;;
9522;SDS011;63165;43.016;25.784;2023-03-03T04:43:08;109.60;;;34.63;;
9522;SDS011;63165;43.016;25.784;2023-03-03T04:45:36;110.13;;;33.97;;
9522;SDS011;63165;43.016;25.784;2023-03-03T04:48:03;105.75;;;32.83;;
9522;SDS011;63165;43.016;25.784;2023-03-03T04:50:31;114.03;;;34.05;;
9522;SDS011;63165;43.016;25.784;2023-03-03T04:52:59;124.68;;;36.05;;
9522;SDS011;63165;43.016;25.784;2023-03-03T04:55:26;115.97;;;35.90;;
9522;SDS011;63165;43.016;25.784;2023-03-03T04:57:53;132.60;;;37.25;;
9522;SDS011;63165;43.016;25.784;2023-03-03T05:00:22;125.97;;;36.08;;
9522;SDS011;63165;43.016;25.784;2023-03-03T05:02:49;110.85;;;34.13;;
9522;SDS011;63165;43.016;25.784;2023-03-03T05:05:17;118.40;;;34.42;;
9522;SDS011;63165;43.016;25.784;2023-03-03T05:07:44;122.95;;;34.40;;
9522;SDS011;63165;43.016;25.784;2023-03-03T05:10:11;116.30;;;33.28;;
9522;SDS011;63165;43.016;25.784;2023-03-03T05:12:38;104.22;;;33.22;;
9522;SDS011;63165;43.016;25.784;2023-03-03T05:15:06;115.22;;;35.40;;
9522;SDS011;63165;43.016;25.784;2023-03-03T05:17:35;108.65;;;34.30;;
9522;SDS011;63165;43.016;25.784;2023-03-03T05:20:03;108.53;;;33.35;;
9522;SDS011;63165;43.016;25.784;2023-03-03T05:22:32;115.63;;;33.95;;
9522;SDS011;63165;43.016;25.784;2023-03-03T05:25:00;114.82;;;34.63;;
9522;SDS011;63165;43.016;25.784;2023-03-03T05:27:27;118.15;;;34.35;;
9522;SDS011;63165;43.016;25.784;2023-03-03T05:29:54;117.72;;;34.65;;
9522;SDS011;63165;43.016;25.784;2023-03-03T05:32:21;111.57;;;33.58;;
9522;SDS011;63165;43.016;25.784;2023-03-03T05:34:50;117.13;;;34.17;;
9522;SDS011;63165;43.016;25.784;2023-03-03T05:37:18;108.60;;;33.55;;
9522;SDS011;63165;43.016;25.784;2023-03-03T05:39:45;110.93;;;33.42;;
9522;SDS011;63165;43.016;25.784;2023-03-03T05:42:12;114.68;;;34.88;;
9522;SDS011;63165;43.016;25.784;2023-03-03T05:44:40;122.00;;;36.70;;
9522;SDS011;63165;43.016;25.784;2023-03-03T05:47:08;118.55;;;34.72;;
9522;SDS011;63165;43.016;25.784;2023-03-03T05:49:36;117.80;;;35.80;;
9522;SDS011;63165;43.016;25.784;2023-03-03T05:52:05;115.82;;;36.17;;
9522;SDS011;63165;43.016;25.784;2023-03-03T05:54:34;116.15;;;34.10;;
9522;SDS011;63165;43.016;25.784;2023-03-03T05:57:01;127.63;;;36.20;;
9522;SDS011;63165;43.016;25.784;2023-03-03T05:59:28;112.35;;;34.78;;
9522;SDS011;63165;43.016;25.784;2023-03-03T06:01:56;113.45;;;34.45;;
9522;SDS011;63165;43.016;25.784;2023-03-03T06:04:23;108.55;;;34.30;;
9522;SDS011;63165;43.016;25.784;2023-03-03T06:06:50;123.43;;;38.58;;
9522;SDS011;63165;43.016;25.784;2023-03-03T06:09:19;121.93;;;34.97;;
9522;SDS011;63165;43.016;25.784;2023-03-03T06:11:46;118.70;;;35.35;;
9522;SDS011;63165;43.016;25.784;2023-03-03T06:14:14;115.38;;;34.92;;
9522;SDS011;63165;43.016;25.784;2023-03-03T06:16:41;110.70;;;33.33;;
9522;SDS011;63165;43.016;25.784;2023-03-03T06:19:08;114.60;;;33.53;;
9522;SDS011;63165;43.016;25.784;2023-03-03T06:21:35;111.80;;;33.28;;
9522;SDS011;63165;43.016;25.784;2023-03-03T06:24:03;109.63;;;34.40;;
9522;SDS011;63165;43.016;25.784;2023-03-03T06:26:32;102.63;;;33.00;;
9522;SDS011;63165;43.016;25.784;2023-03-03T06:28:59;115.38;;;34.22;;
9522;SDS011;63165;43.016;25.784;2023-03-03T06:31:26;117.97;;;33.33;;
9522;SDS011;63165;43.016;25.784;2023-03-03T06:33:54;116.28;;;34.22;;
9522;SDS011;63165;43.016;25.784;2023-03-03T06:36:21;108.72;;;32.42;;
9522;SDS011;63165;43.016;25.784;2023-03-03T06:38:49;110.18;;;33.97;;
9522;SDS011;63165;43.016;25.784;2023-03-03T06:41:16;106.88;;;34.88;;
9522;SDS011;63165;43.016;25.784;2023-03-03T06:43:45;109.05;;;33.90;;
9522;SDS011;63165;43.016;25.784;2023-03-03T06:46:12;105.47;;;33.05;;
9522;SDS011;63165;43.016;25.784;2023-03-03T06:48:41;106.90;;;32.03;;
9522;SDS011;63165;43.016;25.784;2023-03-03T06:51:13;107.65;;;32.47;;
9522;SDS011;63165;43.016;25.784;2023-03-03T06:53:48;113.68;;;33.58;;
9522;SDS011;63165;43.016;25.784;2023-03-03T06:56:18;110.82;;;33.65;;
9522;SDS011;63165;43.016;25.784;2023-03-03T06:58:47;108.22;;;32.60;;
9522;SDS011;63165;43.016;25.784;2023-03-03T07:01:15;116.05;;;33.03;;
9522;SDS011;63165;43.016;25.784;2023-03-03T07:03:43;110.57;;;33.60;;
9522;SDS011;63165;43.016;25.784;2023-03-03T07:06:15;116.57;;;35.28;;
9522;SDS011;63165;43.016;25.784;2023-03-03T07:08:47;105.07;;;34.47;;
9522;SDS011;63165;43.016;25.784;2023-03-03T07:11:15;107.30;;;32.63;;
9522;SDS011;63165;43.016;25.784;2023-03-03T07:13:47;109.70;;;33.53;;
9522;SDS011;63165;43.016;25.784;2023-03-03T07:16:17;104.57;;;32.45;;
9522;SDS011;63165;43.016;25.784;2023-03-03T07:18:47;116.10;;;34.65;;
9522;SDS011;63165;43.016;25.784;2023-03-03T07:21:18;114.20;;;35.05;;
9522;SDS011;63165;43.016;25.784;2023-03-03T07:23:47;143.70;;;38.78;;
9522;SDS011;63165;43.016;25.784;2023-03-03T07:26:16;128.82;;;39.60;;
9522;SDS011;63165;43.016;25.784;2023-03-03T07:28:50;132.80;;;38.80;;
9522;SDS011;63165;43.016;25.784;2023-03-03T07:31:27;111.40;;;32.75;;
9522;SDS011;63165;43.016;25.784;2023-03-03T07:33:57;108.40;;;35.97;;
9522;SDS011;63165;43.016;25.784;2023-03-03T07:36:27;110.38;;;33.45;;
9522;SDS011;63165;43.016;25.784;2023-03-03T07:38:56;138.07;;;39.85;;
9522;SDS011;63165;43.016;25.784;2023-03-03T07:41:26;136.30;;;43.30;;
9522;SDS011;63165;43.016;25.784;2023-03-03T07:44:01;168.18;;;55.28;;
9522;SDS011;63165;43.016;25.784;2023-03-03T07:46:33;133.23;;;39.13;;
9522;SDS011;63165;43.016;25.784;2023-03-03T07:49:10;157.10;;;53.35;;
9522;SDS011;63165;43.016;25.784;2023-03-03T07:51:46;168.82;;;57.60;;
9522;SDS011;63165;43.016;25.784;2023-03-03T07:54:16;131.50;;;40.85;;
9522;SDS011;63165;43.016;25.784;2023-03-03T07:56:54;137.50;;;37.40;;
9522;SDS011;63165;43.016;25.784;2023-03-03T07:59:25;128.23;;;39.03;;
9522;SDS011;63165;43.016;25.784;2023-03-03T08:01:52;129.43;;;36.00;;
9522;SDS011;63165;43.016;25.784;2023-03-03T08:04:23;139.57;;;36.78;;
9522;SDS011;63165;43.016;25.784;2023-03-03T08:06:54;131.90;;;37.28;;
9522;SDS011;63165;43.016;25.784;2023-03-03T08:09:38;124.68;;;38.38;;
9522;SDS011;63165;43.016;25.784;2023-03-03T08:12:13;134.00;;;42.85;;
9522;SDS011;63165;43.016;25.784;2023-03-03T08:14:51;115.93;;;36.83;;
9522;SDS011;63165;43.016;25.784;2023-03-03T08:17:21;120.22;;;36.38;;
9522;SDS011;63165;43.016;25.784;2023-03-03T08:19:50;123.78;;;37.25;;
9522;SDS011;63165;43.016;25.784;2023-03-03T08:22:22;127.70;;;35.30;;
9522;SDS011;63165;43.016;25.784;2023-03-03T08:24:55;124.22;;;36.20;;
9522;SDS011;63165;43.016;25.784;2023-03-03T08:27:23;132.93;;;37.42;;
9522;SDS011;63165;43.016;25.784;2023-03-03T08:29:52;124.65;;;36.05;;
9522;SDS011;63165;43.016;25.784;2023-03-03T08:32:19;119.38;;;34.75;;
9522;SDS011;63165;43.016;25.784;2023-03-03T08:34:47;117.03;;;35.42;;
9522;SDS011;63165;43.016;25.784;2023-03-03T08:37:14;125.15;;;36.22;;
9522;SDS011;63165;43.016;25.784;2023-03-03T08:39:41;121.32;;;35.88;;
9522;SDS011;63165;43.016;25.784;2023-03-03T08:42:08;118.13;;;33.60;;
9522;SDS011;63165;43.016;25.784;2023-03-03T08:44:36;116.55;;;35.05;;
9522;SDS011;63165;43.016;25.784;2023-03-03T08:47:05;118.90;;;34.97;;
9522;SDS011;63165;43.016;25.784;2023-03-03T08:49:32;126.90;;;36.13;;
9522;SDS011;63165;43.016;25.784;2023-03-03T08:52:00;121.32;;;35.67;;
9522;SDS011;63165;43.016;25.784;2023-03-03T08:54:27;125.85;;;36.42;;
9522;SDS011;63165;43.016;25.784;2023-03-03T08:56:54;110.80;;;35.97;;
9522;SDS011;63165;43.016;25.784;2023-03-03T08:59:22;121.00;;;35.85;;
9522;SDS011;63165;43.016;25.784;2023-03-03T09:01:49;116.10;;;35.25;;
9522;SDS011;63165;43.016;25.784;2023-03-03T09:04:18;224.68;;;61.55;;
9522;SDS011;63165;43.016;25.784;2023-03-03T09:06:45;137.80;;;38.30;;
9522;SDS011;63165;43.016;25.784;2023-03-03T09:09:13;122.78;;;36.90;;
9522;SDS011;63165;43.016;25.784;2023-03-03T09:11:40;117.57;;;36.17;;
9522;SDS011;63165;43.016;25.784;2023-03-03T09:14:09;128.18;;;41.63;;
9522;SDS011;63165;43.016;25.784;2023-03-03T09:16:38;130.95;;;39.03;;
9522;SDS011;63165;43.016;25.784;2023-03-03T09:19:20;133.02;;;40.38;;
9522;SDS011;63165;43.016;25.784;2023-03-03T09:21:51;135.10;;;35.92;;
9522;SDS011;63165;43.016;25.784;2023-03-03T09:24:22;118.97;;;34.15;;
9522;SDS011;63165;43.016;25.784;2023-03-03T09:26:52;121.40;;;35.33;;
9522;SDS011;63165;43.016;25.784;2023-03-03T09:29:25;134.68;;;41.25;;
9522;SDS011;63165;43.016;25.784;2023-03-03T09:31:54;130.60;;;38.33;;
9522;SDS011;63165;43.016;25.784;2023-03-03T09:34:26;132.40;;;38.25;;
9522;SDS011;63165;43.016;25.784;2023-03-03T09:37:13;132.15;;;36.83;;
9522;SDS011;63165;43.016;25.784;2023-03-03T09:39:45;124.85;;;32.05;;
9522;SDS011;63165;43.016;25.784;2023-03-03T09:48:18;113.45;;;33.40;;
9522;SDS011;63165;43.016;25.784;2023-03-03T09:51:11;111.38;;;34.08;;
9522;SDS011;63165;43.016;25.784;2023-03-03T09:53:53;115.00;;;34.25;;
9522;SDS011;63165;43.016;25.784;2023-03-03T09:56:34;115.68;;;34.03;;
9522;SDS011;63165;43.016;25.784;2023-03-03T09:59:11;115.07;;;33.35;;
9522;SDS011;63165;43.016;25.784;2023-03-03T10:01:50;120.75;;;33.97;;
9522;SDS011;63165;43.016;25.784;2023-03-03T10:04:42;107.93;;;34.30;;
9522;SDS011;63165;43.016;25.784;2023-03-03T10:07:26;103.07;;;30.75;;
9522;SDS011;63165;43.016;25.784;2023-03-03T10:10:05;115.57;;;33.22;;
9522;SDS011;63165;43.016;25.784;2023-03-03T10:12:48;111.80;;;31.92;;
9522;SDS011;63165;43.016;25.784;2023-03-03T10:15:27;100.75;;;30.98;;
9522;SDS011;63165;43.016;25.784;2023-03-03T10:18:08;113.70;;;31.25;;
9522;SDS011;63165;43.016;25.784;2023-03-03T10:20:44;113.13;;;30.77;;
9522;SDS011;63165;43.016;25.784;2023-03-03T10:23:23;103.38;;;30.10;;
9522;SDS011;63165;43.016;25.784;2023-03-03T10:26:06;108.43;;;31.88;;
9522;SDS011;63165;43.016;25.784;2023-03-03T10:28:48;117.35;;;33.75;;
9522;SDS011;63165;43.016;25.784;2023-03-03T10:31:31;106.40;;;32.92;;
9522;SDS011;63165;43.016;25.784;2023-03-03T10:34:12;109.38;;;30.98;;
9522;SDS011;63165;43.016;25.784;2023-03-03T10:36:52;88.30;;;27.63;;
9522;SDS011;63165;43.016;25.784;2023-03-03T10:39:35;100.55;;;29.00;;
9522;SDS011;63165;43.016;25.784;2023-03-03T10:42:16;103.78;;;31.35;;
9522;SDS011;63165;43.016;25.784;2023-03-03T10:45:03;112.13;;;31.50;;
9522;SDS011;63165;43.016;25.784;2023-03-03T10:47:56;96.43;;;29.80;;
9522;SDS011;63165;43.016;25.784;2023-03-03T10:50:44;99.10;;;30.95;;
9522;SDS011;63165;43.016;25.784;2023-03-03T10:53:25;88.47;;;29.55;;
9522;SDS011;63165;43.016;25.784;2023-03-03T10:56:04;107.25;;;33.90;;
9522;SDS011;63165;43.016;25.784;2023-03-03T10:58:49;98.72;;;29.27;;
9522;SDS011;63165;43.016;25.784;2023-03-03T11:01:29;105.28;;;31.85;;
9522;SDS011;63165;43.016;25.784;2023-03-03T11:04:13;86.05;;;28.52;;
9522;SDS011;63165;43.016;25.784;2023-03-03T11:07:02;97.68;;;29.80;;
9522;SDS011;63165;43.016;25.784;2023-03-03T11:12:40;94.72;;;28.98;;
9522;SDS011;63165;43.016;25.784;2023-03-03T11:15:21;100.68;;;29.23;;
9522;SDS011;63165;43.016;25.784;2023-03-03T11:18:08;93.15;;;28.40;;
9522;SDS011;63165;43.016;25.784;2023-03-03T11:20:42;113.78;;;32.20;;
9522;SDS011;63165;43.016;25.784;2023-03-03T11:23:39;98.63;;;28.65;;
9522;SDS011;63165;43.016;25.784;2023-03-03T11:26:20;101.30;;;28.95;;
9522;SDS011;63165;43.016;25.784;2023-03-03T11:29:01;101.10;;;31.38;;
9522;SDS011;63165;43.016;25.784;2023-03-03T11:31:43;96.28;;;29.20;;
9522;SDS011;63165;43.016;25.784;2023-03-03T11:34:18;132.02;;;36.42;;
9522;SDS011;63165;43.016;25.784;2023-03-03T11:36:56;129.38;;;36.65;;
9522;SDS011;63165;43.016;25.784;2023-03-03T11:39:29;93.65;;;29.25;;
9522;SDS011;63165;43.016;25.784;2023-03-03T11:41:59;96.50;;;30.08;;
9522;SDS011;63165;43.016;25.784;2023-03-03T11:44:34;101.90;;;29.75;;
9522;SDS011;63165;43.016;25.784;2023-03-03T11:47:04;84.15;;;27.55;;
9522;SDS011;63165;43.016;25.784;2023-03-03T11:49:40;90.68;;;28.38;;
9522;SDS011;63165;43.016;25.784;2023-03-03T11:52:23;89.05;;;28.55;;
9522;SDS011;63165;43.016;25.784;2023-03-03T11:54:59;110.68;;;31.15;;
9522;SDS011;63165;43.016;25.784;2023-03-03T11:57:31;118.90;;;33.20;;
9522;SDS011;63165;43.016;25.784;2023-03-03T12:00:16;108.18;;;31.42;;
9522;SDS011;63165;43.016;25.784;2023-03-03T12:02:54;99.07;;;29.05;;
9522;SDS011;63165;43.016;25.784;2023-03-03T12:05:31;104.65;;;30.13;;
9522;SDS011;63165;43.016;25.784;2023-03-03T12:08:07;101.38;;;30.33;;
9522;SDS011;63165;43.016;25.784;2023-03-03T12:10:47;103.50;;;29.15;;
9522;SDS011;63165;43.016;25.784;2023-03-03T12:13:21;103.47;;;31.45;;
9522;SDS011;63165;43.016;25.784;2023-03-03T12:15:56;119.45;;;32.08;;
9522;SDS011;63165;43.016;25.784;2023-03-03T12:18:34;109.22;;;31.02;;
9522;SDS011;63165;43.016;25.784;2023-03-03T12:21:25;100.32;;;28.40;;
9522;SDS011;63165;43.016;25.784;2023-03-03T12:27:09;93.38;;;28.58;;
9522;SDS011;63165;43.016;25.784;2023-03-03T12:29:46;89.65;;;27.20;;
9522;SDS011;63165;43.016;25.784;2023-03-03T12:32:25;82.57;;;25.98;;
9522;SDS011;63165;43.016;25.784;2023-03-03T12:35:05;90.23;;;26.80;;
9522;SDS011;63165;43.016;25.784;2023-03-03T12:37:46;95.57;;;27.52;;
9522;SDS011;63165;43.016;25.784;2023-03-03T12:40:20;89.15;;;28.00;;
9522;SDS011;63165;43.016;25.784;2023-03-03T12:42:57;105.35;;;28.25;;
9522;SDS011;63165;43.016;25.784;2023-03-03T12:45:51;94.07;;;27.63;;
9522;SDS011;63165;43.016;25.784;2023-03-03T12:48:27;91.72;;;26.15;;
9522;SDS011;63165;43.016;25.784;2023-03-03T12:51:05;97.53;;;29.00;;
9522;SDS011;63165;43.016;25.784;2023-03-03T12:53:44;91.55;;;27.08;;
9522;SDS011;63165;43.016;25.784;2023-03-03T12:56:21;85.47;;;25.65;;
9522;SDS011;63165;43.016;25.784;2023-03-03T12:58:59;82.80;;;25.73;;
9522;SDS011;63165;43.016;25.784;2023-03-03T13:01:39;89.38;;;26.15;;
9522;SDS011;63165;43.016;25.784;2023-03-03T13:04:30;84.10;;;26.48;;
9522;SDS011;63165;43.016;25.784;2023-03-03T13:07:04;86.72;;;28.23;;
9522;SDS011;63165;43.016;25.784;2023-03-03T13:09:54;94.53;;;29.73;;
9522;SDS011;63165;43.016;25.784;2023-03-03T13:12:34;87.60;;;27.88;;
9522;SDS011;63165;43.016;25.784;2023-03-03T13:15:12;139.45;;;42.30;;
9522;SDS011;63165;43.016;25.784;2023-03-03T13:17:50;94.72;;;30.67;;
9522;SDS011;63165;43.016;25.784;2023-03-03T13:20:39;104.90;;;33.40;;
9522;SDS011;63165;43.016;25.784;2023-03-03T13:23:12;100.30;;;32.67;;
9522;SDS011;63165;43.016;25.784;2023-03-03T13:25:54;115.43;;;33.70;;
9522;SDS011;63165;43.016;25.784;2023-03-03T13:28:27;119.95;;;35.47;;
9522;SDS011;63165;43.016;25.784;2023-03-03T13:31:01;116.60;;;35.22;;
9522;SDS011;63165;43.016;25.784;2023-03-03T13:33:34;120.18;;;33.90;;
9522;SDS011;63165;43.016;25.784;2023-03-03T13:36:04;120.00;;;33.25;;
9522;SDS011;63165;43.016;25.784;2023-03-03T13:38:35;117.63;;;33.35;;
9522;SDS011;63165;43.016;25.784;2023-03-03T13:41:07;128.07;;;36.63;;
9522;SDS011;63165;43.016;25.784;2023-03-03T13:43:44;117.82;;;35.40;;
9522;SDS011;63165;43.016;25.784;2023-03-03T13:46:17;121.05;;;36.95;;
9522;SDS011;63165;43.016;25.784;2023-03-03T13:49:02;119.10;;;34.65;;
9522;SDS011;63165;43.016;25.784;2023-03-03T13:51:43;113.60;;;34.50;;
9522;SDS011;63165;43.016;25.784;2023-03-03T13:54:23;113.70;;;34.58;;
9522;SDS011;63165;43.016;25.784;2023-03-03T13:57:13;115.47;;;34.55;;
9522;SDS011;63165;43.016;25.784;2023-03-03T13:59:51;118.18;;;34.40;;
9522;SDS011;63165;43.016;25.784;2023-03-03T14:02:42;116.28;;;35.35;;
9522;SDS011;63165;43.016;25.784;2023-03-03T14:05:22;116.10;;;34.60;;
9522;SDS011;63165;43.016;25.784;2023-03-03T14:07:58;129.27;;;36.45;;
9522;SDS011;63165;43.016;25.784;2023-03-03T14:10:28;119.80;;;34.88;;
9522;SDS011;63165;43.016;25.784;2023-03-03T14:13:01;120.90;;;36.65;;
9522;SDS011;63165;43.016;25.784;2023-03-03T14:15:32;126.88;;;37.53;;
9522;SDS011;63165;43.016;25.784;2023-03-03T14:18:04;129.32;;;40.22;;
9522;SDS011;63165;43.016;25.784;2023-03-03T14:20:45;142.70;;;39.28;;
9522;SDS011;63165;43.016;25.784;2023-03-03T14:23:18;141.30;;;40.20;;
9522;SDS011;63165;43.016;25.784;2023-03-03T14:25:52;136.83;;;39.73;;
9522;SDS011;63165;43.016;25.784;2023-03-03T14:28:23;145.85;;;43.20;;
9522;SDS011;63165;43.016;25.784;2023-03-03T14:30:52;157.88;;;44.20;;
9522;SDS011;63165;43.016;25.784;2023-03-03T14:33:22;145.23;;;42.53;;
9522;SDS011;63165;43.016;25.784;2023-03-03T14:36:02;149.68;;;42.15;;
9522;SDS011;63165;43.016;25.784;2023-03-03T14:38:40;144.38;;;43.13;;
9522;SDS011;63165;43.016;25.784;2023-03-03T14:41:15;149.60;;;43.10;;
9522;SDS011;63165;43.016;25.784;2023-03-03T14:43:45;147.90;;;41.90;;
9522;SDS011;63165;43.016;25.784;2023-03-03T14:46:31;167.90;;;50.15;;
9522;SDS011;63165;43.016;25.784;2023-03-03T14:49:05;171.80;;;51.42;;
9522;SDS011;63165;43.016;25.784;2023-03-03T14:51:41;297.00;;;83.32;;
9522;SDS011;63165;43.016;25.784;2023-03-03T14:54:25;168.48;;;46.70;;
9522;SDS011;63165;43.016;25.784;2023-03-03T14:56:55;210.05;;;60.28;;